Time;durP1;ratioP1;P1;durP2;ratioP2;P2;SDS_P1;SDS_P2;PMS_P1;PMS_P2;Temp;Humidity;BMP_temperature;BMP_pressure;BME280_temperature;BME280_humidity;BME280_pressure;Samples;Min_cycle;Max_cycle;Signal;HPM_P1;HPM_P2
2023/09/15 00:01:16;;;;;;;1.92;1.65;;;20.80;61.80;;;;;;4179612;28;20106;-45
2023/09/15 00:03:58;;;;;;;3.22;1.73;;;20.70;61.80;;;;;;4187749;28;20044;-46
2023/09/15 00:06:40;;;;;;;3.25;1.92;;;20.70;61.80;;;;;;4189167;28;20585;-47
2023/09/15 00:09:21;;;;;;;4.93;1.83;;;20.70;61.50;;;;;;4187912;28;20560;-45
2023/09/15 00:12:04;;;;;;;3.85;2.00;;;20.70;61.50;;;;;;4188938;28;20055;-46
2023/09/15 00:14:46;;;;;;;3.40;2.00;;;20.70;61.50;;;;;;4188173;28;20097;-45
2023/09/15 00:17:27;;;;;;;2.88;1.90;;;20.70;61.50;;;;;;4188432;28;20540;-45
2023/09/15 00:20:13;;;;;;;4.60;2.33;;;20.70;61.40;;;;;;4186301;28;20060;-44
2023/09/15 00:22:56;;;;;;;1.80;1.55;;;20.60;61.50;;;;;;4187942;28;20113;-45
2023/09/15 00:25:37;;;;;;;2.15;1.60;;;20.60;61.70;;;;;;4188797;28;20051;-44
2023/09/15 00:28:19;;;;;;;2.47;1.80;;;20.60;61.60;;;;;;4188333;28;20050;-44
2023/09/15 00:31:00;;;;;;;2.50;2.30;;;20.60;61.80;;;;;;4188580;28;20117;-44
2023/09/15 00:33:41;;;;;;;6.13;2.05;;;20.60;61.90;;;;;;4183345;28;20403;-44
2023/09/15 00:36:22;;;;;;;2.13;1.60;;;20.60;62.00;;;;;;4188444;28;20063;-47
2023/09/15 00:39:04;;;;;;;4.45;1.85;;;20.60;62.00;;;;;;4185679;28;20145;-43
2023/09/15 00:41:44;;;;;;;;;;;20.60;62.10;;;;;;4188599;28;20415;-45
2023/09/15 00:44:27;;;;;;;2.60;2.15;;;20.60;62.40;;;;;;4188509;28;19928;-44
2023/09/15 00:47:08;;;;;;;3.65;1.77;;;20.50;62.80;;;;;;4186818;28;20063;-57
2023/09/15 00:49:49;;;;;;;4.53;2.13;;;20.50;62.30;;;;;;4187658;28;20213;-58
2023/09/15 00:52:31;;;;;;;3.03;1.85;;;20.50;63.10;;;;;;4178392;28;20052;-58
2023/09/15 00:55:13;;;;;;;2.65;1.67;;;20.50;62.20;;;;;;4187535;28;20051;-57
2023/09/15 00:57:56;;;;;;;2.97;1.90;;;20.50;62.20;;;;;;4185572;28;20059;-58
2023/09/15 01:00:41;;;;;;;5.35;2.35;;;20.50;62.00;;;;;;4186783;28;20117;-59
2023/09/15 01:03:24;;;;;;;2.58;1.95;;;20.50;62.00;;;;;;4186476;28;20118;-59
2023/09/15 01:06:07;;;;;;;2.38;1.50;;;20.50;62.10;;;;;;4171147;28;20184;-59
2023/09/15 01:08:48;;;;;;;2.88;1.73;;;20.50;62.20;;;;;;4183076;28;20479;-59
2023/09/15 01:11:31;;;;;;;4.30;2.10;;;20.50;62.30;;;;;;4188155;28;20503;-58
2023/09/15 01:14:12;;;;;;;5.90;2.10;;;20.50;62.30;;;;;;4171215;28;20137;-57
2023/09/15 01:17:00;;;;;;;5.32;2.28;;;20.50;62.20;;;;;;4170160;28;20052;-58
2023/09/15 01:19:57;;;;;;;4.50;1.75;;;20.50;62.10;;;;;;4181226;28;20044;-58
2023/09/15 01:23:11;;;;;;;4.50;2.03;;;20.50;62.10;;;;;;4168720;28;20056;-59
2023/09/15 01:26:28;;;;;;;1.98;1.88;;;20.40;61.60;;;;;;4169933;28;20114;-58
2023/09/15 01:29:48;;;;;;;6.30;2.20;;;20.40;61.50;;;;;;4176219;28;20511;-59
2023/09/15 01:32:31;;;;;;;3.15;2.40;;;20.40;61.30;;;;;;4151472;28;20060;-57
2023/09/15 01:35:12;;;;;;;2.13;1.80;;;20.40;62.30;;;;;;4139729;28;20495;-58
2023/09/15 01:37:53;;;;;;;2.67;1.92;;;20.40;62.30;;;;;;4183871;28;20395;-55
2023/09/15 01:40:34;;;;;;;2.22;1.98;;;20.30;62.10;;;;;;4169872;28;20510;-53
2023/09/15 01:43:15;;;;;;;2.45;1.88;;;20.40;62.20;;;;;;4169542;28;20056;-57
2023/09/15 01:45:59;;;;;;;5.35;2.10;;;20.30;62.30;;;;;;4180268;28;20051;-55
2023/09/15 01:48:41;;;;;;;3.85;2.35;;;20.30;62.20;;;;;;4187475;28;20415;-57
2023/09/15 01:51:23;;;;;;;3.80;2.00;;;20.30;62.10;;;;;;4185913;28;20449;-58
2023/09/15 01:54:05;;;;;;;2.28;2.08;;;20.30;62.10;;;;;;4186363;28;20515;-58
2023/09/15 01:56:48;;;;;;;;;;;20.30;62.00;;;;;;4187771;28;20407;-57
2023/09/15 01:59:29;;;;;;;3.60;2.25;;;20.30;62.30;;;;;;4186669;28;19928;-57
2023/09/15 02:02:11;;;;;;;4.95;1.95;;;20.30;62.70;;;;;;4184640;28;20056;-57
2023/09/15 02:04:53;;;;;;;4.40;2.05;;;20.30;62.40;;;;;;4185942;28;20191;-57
2023/09/15 02:07:34;;;;;;;3.88;1.67;;;20.30;62.40;;;;;;4170545;28;20063;-57
2023/09/15 02:10:15;;;;;;;2.20;2.00;;;20.20;62.30;;;;;;4170355;28;20118;-56
2023/09/15 02:12:56;;;;;;;2.88;1.75;;;20.20;62.40;;;;;;4170590;28;20056;-57
2023/09/15 02:15:38;;;;;;;3.10;1.92;;;20.20;62.50;;;;;;4176677;28;20412;-56
2023/09/15 02:18:20;;;;;;;4.57;2.20;;;20.20;62.50;;;;;;4174179;28;20055;-57
2023/09/15 02:21:01;;;;;;;3.38;2.70;;;20.20;62.40;;;;;;4186628;28;20105;-56
2023/09/15 02:23:42;;;;;;;4.88;2.00;;;20.20;62.40;;;;;;4185391;28;20159;-57
2023/09/15 02:26:23;;;;;;;4.68;2.53;;;20.20;62.10;;;;;;4186881;28;20059;-58
2023/09/15 02:29:04;;;;;;;2.85;2.38;;;20.10;61.70;;;;;;4187602;28;20182;-57
2023/09/15 02:31:45;;;;;;;;;;;20.10;61.60;;;;;;4187353;28;20589;-58
2023/09/15 02:34:28;;;;;;;3.05;2.33;;;20.10;62.20;;;;;;4189617;28;19927;-55
2023/09/15 02:37:08;;;;;;;1.83;1.73;;;20.10;63.00;;;;;;4189770;28;20102;-56
2023/09/15 02:39:49;;;;;;;2.75;2.40;;;20.10;62.70;;;;;;4190327;28;20569;-57
2023/09/15 02:42:30;;;;;;;1.98;1.88;;;20.10;62.70;;;;;;4173757;28;20408;-57
2023/09/15 02:45:11;;;;;;;3.47;1.90;;;20.10;62.60;;;;;;4183808;28;20048;-56
2023/09/15 02:47:52;;;;;;;2.83;2.05;;;20.00;62.40;;;;;;4171195;28;20052;-57
2023/09/15 02:50:34;;;;;;;3.95;2.28;;;20.00;62.30;;;;;;4174410;28;20048;-56
2023/09/15 02:53:15;;;;;;;4.38;2.17;;;20.10;62.30;;;;;;4188875;28;20051;-56
2023/09/15 02:55:59;;;;;;;3.13;2.10;;;20.00;61.80;;;;;;4189212;28;20403;-55
2023/09/15 02:58:44;;;;;;;3.20;1.95;;;20.00;61.90;;;;;;4189321;28;20049;-54
2023/09/15 03:01:26;;;;;;;4.75;2.13;;;20.00;62.20;;;;;;4182193;28;20044;-55
2023/09/15 03:04:08;;;;;;;;;;;20.00;62.50;;;;;;4175656;28;20055;-57
2023/09/15 03:06:50;;;;;;;3.75;2.20;;;20.00;62.60;;;;;;4184355;28;19939;-57
2023/09/15 03:09:32;;;;;;;2.42;2.22;;;20.00;63.10;;;;;;4172781;28;20113;-55
2023/09/15 03:12:14;;;;;;;5.85;2.85;;;20.00;62.50;;;;;;4187429;28;20051;-55
2023/09/15 03:14:55;;;;;;;3.00;2.22;;;19.90;62.20;;;;;;4189485;28;20530;-55
2023/09/15 03:17:37;;;;;;;5.07;2.85;;;20.00;62.10;;;;;;4177247;28;20506;-53
2023/09/15 03:20:19;;;;;;;3.17;2.05;;;19.90;62.00;;;;;;4189188;28;20133;-52
2023/09/15 03:23:01;;;;;;;3.10;2.40;;;20.00;62.30;;;;;;4188252;28;20055;-53
2023/09/15 03:25:42;;;;;;;2.55;2.35;;;19.90;62.10;;;;;;4188651;28;20051;-52
2023/09/15 03:28:24;;;;;;;3.08;2.30;;;19.90;61.80;;;;;;4188376;28;20086;-53
2023/09/15 03:31:08;;;;;;;3.92;2.53;;;19.90;61.90;;;;;;4188120;28;20059;-54
2023/09/15 03:33:50;;;;;;;2.75;2.50;;;19.90;62.30;;;;;;4171770;28;20052;-53
2023/09/15 03:36:31;;;;;;;2.45;2.22;;;19.90;62.40;;;;;;4172749;28;20052;-51
2023/09/15 03:39:14;;;;;;;3.40;2.03;;;19.90;62.50;;;;;;4173050;28;20056;-53
2023/09/15 03:41:55;;;;;;;3.10;2.65;;;19.90;62.40;;;;;;4187345;28;20047;-52
2023/09/15 03:44:36;;;;;;;3.47;2.10;;;19.90;62.40;;;;;;4187247;28;20558;-54
2023/09/15 03:47:18;;;;;;;2.05;1.92;;;19.90;62.70;;;;;;4188359;28;20051;-57
2023/09/15 03:49:58;;;;;;;2.63;2.42;;;19.80;62.80;;;;;;4189238;28;20051;-57
2023/09/15 03:52:49;;;;;;;6.50;2.40;;;19.80;62.70;;;;;;4189742;28;20129;-59
2023/09/15 03:55:31;;;;;;;3.33;2.58;;;19.80;62.40;;;;;;4189767;28;20515;-57
2023/09/15 03:58:12;;;;;;;3.72;2.75;;;19.80;62.10;;;;;;4187894;28;20055;-56
2023/09/15 04:00:54;;;;;;;3.60;2.80;;;19.80;62.00;;;;;;4187949;28;20491;-56
2023/09/15 04:03:35;;;;;;;3.15;2.55;;;19.80;62.40;;;;;;4188613;28;20416;-58
2023/09/15 04:06:16;;;;;;;;;;;19.80;62.60;;;;;;4189724;28;20059;-58
2023/09/15 04:08:57;;;;;;;;;;;19.80;62.70;;;;;;4188178;28;20074;-57
2023/09/15 04:11:40;;;;;;;4.10;2.83;;;19.70;63.40;;;;;;4187205;28;19931;-58
2023/09/15 04:14:21;;;;;;;2.67;2.47;;;19.70;63.70;;;;;;4189029;28;20055;-59
2023/09/15 04:17:03;;;;;;;3.03;2.83;;;19.70;64.30;;;;;;4189147;28;20055;-56
2023/09/15 04:19:44;;;;;;;4.25;2.70;;;19.70;63.10;;;;;;4199411;28;20179;-55
2023/09/15 04:22:25;;;;;;;3.92;2.90;;;19.70;62.80;;;;;;4171515;28;20138;-58
2023/09/15 04:25:11;;;;;;;6.00;2.78;;;19.70;62.80;;;;;;4170816;28;20056;-58
2023/09/15 04:27:54;;;;;;;4.15;2.95;;;19.70;62.80;;;;;;4171361;28;20101;-59
2023/09/15 04:30:35;;;;;;;2.92;2.72;;;19.70;62.80;;;;;;4179165;28;20448;-60
2023/09/15 04:33:16;;;;;;;3.35;2.90;;;19.70;62.70;;;;;;4187172;28;20498;-58
2023/09/15 04:35:57;;;;;;;3.83;2.83;;;19.70;62.50;;;;;;4188013;28;20060;-59
2023/09/15 04:38:38;;;;;;;6.90;3.60;;;19.60;62.40;;;;;;4188082;28;20055;-57
2023/09/15 04:41:19;;;;;;;;;;;19.60;62.40;;;;;;4187833;28;20047;-55
2023/09/15 04:44:03;;;;;;;3.55;2.80;;;19.60;62.50;;;;;;4187422;28;20054;-56
2023/09/15 04:46:45;;;;;;;3.35;2.55;;;19.60;63.20;;;;;;4187431;28;20121;-57
2023/09/15 04:49:26;;;;;;;3.72;3.05;;;19.60;63.00;;;;;;4189007;28;20117;-56
2023/09/15 04:52:07;;;;;;;3.90;3.05;;;19.60;62.80;;;;;;4186908;28;20487;-60
2023/09/15 04:54:49;;;;;;;4.57;3.00;;;19.60;62.80;;;;;;4187032;28;20052;-55
2023/09/15 04:57:30;;;;;;;3.83;2.92;;;19.60;63.00;;;;;;4187430;28;20060;-54
2023/09/15 05:00:13;;;;;;;3.75;3.22;;;19.60;63.70;;;;;;4186719;28;20174;-60
2023/09/15 05:02:56;;;;;;;7.10;3.30;;;19.70;62.40;;;;;;4186792;28;20056;-60
2023/09/15 05:05:40;;;;;;;3.83;3.10;;;19.70;62.60;;;;;;4177370;28;20056;-60
2023/09/15 05:08:21;;;;;;;4.72;3.45;;;19.60;62.80;;;;;;4188541;28;20060;-58
2023/09/15 05:11:02;;;;;;;4.55;3.00;;;19.60;62.80;;;;;;4185558;28;20395;-57
2023/09/15 05:13:43;;;;;;;3.38;3.10;;;19.60;63.00;;;;;;4188411;28;20522;-57
2023/09/15 05:16:27;;;;;;;5.70;3.50;;;19.60;63.10;;;;;;4186700;28;20055;-55
2023/09/15 05:19:08;;;;;;;3.67;3.38;;;19.60;63.60;;;;;;4182310;28;20048;-57
2023/09/15 05:21:49;;;;;;;6.72;3.50;;;19.60;63.10;;;;;;4198346;28;20059;-56
2023/09/15 05:24:31;;;;;;;4.63;3.30;;;19.60;63.90;;;;;;4187614;28;20051;-53
2023/09/15 05:27:11;;;;;;;;;;;19.60;63.10;;;;;;4186642;28;20286;-56
2023/09/15 05:29:53;;;;;;;3.53;3.15;;;19.50;63.20;;;;;;4187210;28;19969;-45
2023/09/15 05:32:35;;;;;;;4.00;3.70;;;19.50;63.80;;;;;;4188144;28;20079;-44
2023/09/15 05:35:17;;;;;;;5.53;3.58;;;19.50;63.50;;;;;;4186465;28;20140;-56
2023/09/15 05:37:58;;;;;;;6.20;4.15;;;19.50;63.20;;;;;;4174050;28;20043;-57
2023/09/15 05:40:39;;;;;;;4.47;3.45;;;19.50;62.90;;;;;;4186456;28;20059;-56
2023/09/15 05:43:22;;;;;;;4.63;3.72;;;19.50;63.70;;;;;;4197832;28;20090;-56
2023/09/15 05:46:02;;;;;;;4.60;4.22;;;19.50;63.30;;;;;;4187635;28;20074;-56
2023/09/15 05:48:45;;;;;;;4.47;3.08;;;19.50;63.50;;;;;;4187088;28;20055;-56
2023/09/15 05:51:26;;;;;;;4.82;3.53;;;19.50;63.50;;;;;;4187557;28;20060;-45
2023/09/15 05:54:07;;;;;;;4.20;3.58;;;19.50;63.60;;;;;;4187616;28;20052;-45
2023/09/15 05:56:48;;;;;;;7.57;3.88;;;19.50;63.50;;;;;;4187393;28;20047;-51
2023/09/15 05:59:29;;;;;;;4.32;3.60;;;19.50;63.30;;;;;;4168809;28;20121;-50
2023/09/15 06:02:10;;;;;;;4.13;3.83;;;19.40;63.30;;;;;;4169997;28;20064;-44
2023/09/15 06:04:53;;;;;;;4.55;3.95;;;19.40;63.30;;;;;;4170561;28;20052;-49
2023/09/15 06:07:34;;;;;;;5.30;4.43;;;19.40;63.30;;;;;;4182802;28;20083;-49
2023/09/15 06:10:15;;;;;;;5.10;4.50;;;19.40;63.40;;;;;;4187387;28;20133;-46
2023/09/15 06:12:56;;;;;;;5.32;4.10;;;19.40;63.60;;;;;;4187747;28;20526;-49
2023/09/15 06:15:37;;;;;;;6.25;4.05;;;19.40;63.80;;;;;;4187089;28;20060;-45
2023/09/15 06:18:18;;;;;;;4.50;4.10;;;19.40;63.80;;;;;;4180804;28;20059;-48
2023/09/15 06:21:01;;;;;;;6.18;4.80;;;19.40;63.90;;;;;;4197346;28;20403;-51
2023/09/15 06:23:41;;;;;;;9.02;4.05;;;19.40;63.90;;;;;;4186977;28;20056;-47
2023/09/15 06:26:23;;;;;;;4.22;3.80;;;19.40;63.90;;;;;;4186906;28;20055;-46
2023/09/15 06:29:04;;;;;;;4.90;4.38;;;19.40;64.00;;;;;;4187089;28;20055;-46
2023/09/15 06:31:44;;;;;;;5.45;4.45;;;19.40;64.00;;;;;;4186169;28;20055;-47
2023/09/15 06:34:26;;;;;;;5.82;4.45;;;19.40;64.20;;;;;;4186819;28;20569;-46
2023/09/15 06:37:09;;;;;;;8.15;4.53;;;19.40;64.30;;;;;;4187270;28;20055;-47
2023/09/15 06:39:51;;;;;;;5.15;4.53;;;19.40;64.30;;;;;;4185792;28;20059;-46
2023/09/15 06:42:33;;;;;;;8.52;4.88;;;19.40;64.20;;;;;;4185733;28;20071;-46
2023/09/15 06:45:16;;;;;;;4.75;4.35;;;19.40;64.50;;;;;;4185908;28;20114;-47
2023/09/15 06:47:57;;;;;;;5.05;4.43;;;19.40;64.60;;;;;;4186783;28;20101;-52
2023/09/15 06:50:39;;;;;;;4.78;4.38;;;19.40;64.60;;;;;;4187160;28;20059;-47
2023/09/15 06:53:21;;;;;;;6.45;5.00;;;19.40;64.60;;;;;;4186034;28;20048;-45
2023/09/15 06:56:02;;;;;;;5.25;4.75;;;19.40;65.90;;;;;;4186577;28;20518;-56
2023/09/15 06:58:44;;;;;;;5.22;4.72;;;19.40;65.40;;;;;;4185359;28;20056;-56
2023/09/15 07:01:25;;;;;;;;;;;19.40;65.40;;;;;;4186291;28;20047;-54
2023/09/15 07:04:06;;;;;;;8.85;5.43;;;19.40;65.40;;;;;;4186832;28;19993;-55
2023/09/15 07:06:47;;;;;;;6.20;4.70;;;19.40;65.50;;;;;;4185947;28;20154;-56
2023/09/15 07:09:30;;;;;;;10.68;5.50;;;19.40;65.40;;;;;;4184762;28;20513;-57
2023/09/15 07:12:10;;;;;;;6.68;4.78;;;19.40;65.60;;;;;;4186117;28;20051;-55
2023/09/15 07:14:52;;;;;;;7.65;5.88;;;19.40;65.60;;;;;;4186888;28;20074;-55
2023/09/15 07:17:33;;;;;;;5.45;4.93;;;19.40;65.50;;;;;;4186467;28;20533;-57
2023/09/15 07:20:14;;;;;;;6.72;4.80;;;19.40;66.20;;;;;;4173136;28;20063;-56
2023/09/15 07:22:56;;;;;;;5.75;5.25;;;19.40;65.70;;;;;;4183161;28;20052;-56
2023/09/15 07:25:39;;;;;;;9.15;5.15;;;19.40;65.80;;;;;;4189278;28;20058;-50
2023/09/15 07:28:20;;;;;;;5.93;5.30;;;19.50;66.10;;;;;;4186208;28;20063;-48
2023/09/15 07:31:04;;;;;;;8.43;5.60;;;19.50;65.90;;;;;;4187813;28;20610;-46
2023/09/15 07:33:45;;;;;;;9.63;5.43;;;19.60;65.70;;;;;;4188510;28;20106;-47
2023/09/15 07:36:26;;;;;;;9.18;5.43;;;19.60;65.20;;;;;;4189765;28;20047;-46
2023/09/15 07:39:07;;;;;;;6.38;5.10;;;19.60;65.40;;;;;;4184841;28;20071;-44
2023/09/15 07:41:50;;;;;;;6.78;4.45;;;19.60;65.70;;;;;;4185595;28;20063;-44
2023/09/15 07:44:31;;;;;;;5.35;4.85;;;19.70;65.80;;;;;;4185638;28;20083;-50
2023/09/15 07:47:14;;;;;;;9.38;4.93;;;19.70;65.90;;;;;;4189336;28;20397;-50
2023/09/15 07:49:57;;;;;;;5.40;4.88;;;19.80;65.90;;;;;;4187749;28;20060;-48
2023/09/15 07:52:39;;;;;;;9.20;4.57;;;19.80;65.80;;;;;;4188805;28;20055;-47
2023/09/15 07:55:20;;;;;;;7.03;4.68;;;19.90;65.70;;;;;;4175698;28;20106;-45
2023/09/15 07:58:02;;;;;;;7.95;5.32;;;19.90;65.60;;;;;;4187205;28;20055;-45
2023/09/15 08:00:43;;;;;;;6.38;4.78;;;20.00;65.50;;;;;;4172417;28;20790;-55
2023/09/15 08:03:24;;;;;;;7.03;4.55;;;20.00;66.40;;;;;;4172958;28;20131;-60
2023/09/15 08:06:06;;;;;;;6.38;4.72;;;20.10;65.60;;;;;;4165304;28;20070;-54
2023/09/15 08:08:46;;;;;;;5.78;4.38;;;20.10;65.60;;;;;;4188998;28;20617;-61
2023/09/15 08:11:27;;;;;;;4.90;4.05;;;20.10;65.70;;;;;;4188885;28;20063;-59
2023/09/15 08:14:10;;;;;;;6.93;4.55;;;20.10;65.80;;;;;;4182441;28;20052;-58
2023/09/15 08:16:51;;;;;;;4.40;3.90;;;20.10;65.90;;;;;;4186607;28;20182;-58
2023/09/15 08:19:32;;;;;;;4.38;3.92;;;20.20;65.90;;;;;;4186088;28;20083;-59
2023/09/15 08:22:15;;;;;;;6.70;4.05;;;20.20;65.70;;;;;;4188079;28;20097;-61
2023/09/15 08:24:57;;;;;;;7.05;3.97;;;20.20;65.90;;;;;;4188658;28;20170;-60
2023/09/15 08:27:37;;;;;;;4.40;3.80;;;20.20;66.20;;;;;;4163384;28;20066;-60
2023/09/15 08:30:22;;;;;;;5.45;3.88;;;20.20;66.40;;;;;;4171256;28;20450;-60
2023/09/15 08:33:05;;;;;;;6.90;4.55;;;20.20;66.50;;;;;;4170208;28;20134;-60
2023/09/15 08:35:46;;;;;;;8.43;3.90;;;20.30;66.50;;;;;;4176980;28;20412;-51
2023/09/15 08:38:31;;;;;;;5.15;3.72;;;20.20;66.40;;;;;;4188135;28;20212;-48
2023/09/15 08:41:21;;;;;;;5.78;4.07;;;20.30;66.50;;;;;;4187639;28;20089;-49
2023/09/15 08:44:03;;;;;;;5.65;3.40;;;20.30;67.50;;;;;;4186507;28;20051;-59
2023/09/15 08:46:48;;;;;;;5.47;3.25;;;20.30;66.60;;;;;;4186338;28;20067;-57
2023/09/15 08:49:31;;;;;;;9.55;3.28;;;20.30;66.80;;;;;;4187529;28;20048;-56
2023/09/15 08:52:15;;;;;;;6.70;3.45;;;20.30;66.70;;;;;;4187574;28;20185;-55
2023/09/15 08:54:57;;;;;;;4.63;3.00;;;20.40;66.70;;;;;;4188320;28;20130;-57
2023/09/15 08:57:39;;;;;;;3.95;3.05;;;20.40;66.50;;;;;;4182083;28;20102;-58
2023/09/15 09:00:21;;;;;;;5.03;2.95;;;20.40;67.20;;;;;;4170139;28;20442;-57
2023/09/15 09:03:05;;;;;;;5.95;3.35;;;20.50;67.30;;;;;;4171257;28;20155;-58
2023/09/15 09:05:48;;;;;;;4.88;3.10;;;20.50;66.50;;;;;;4174145;28;20059;-57
2023/09/15 09:08:29;;;;;;;6.97;3.55;;;20.50;66.60;;;;;;4171572;28;20056;-58
2023/09/15 09:11:10;;;;;;;8.50;3.05;;;20.50;66.60;;;;;;4171896;28;20102;-57
2023/09/15 09:13:52;;;;;;;;;;;20.50;66.20;;;;;;4178121;28;20510;-58
2023/09/15 09:16:34;;;;;;;5.68;3.00;;;20.60;66.20;;;;;;4187811;28;19928;-57
2023/09/15 09:19:16;;;;;;;4.60;2.72;;;20.60;66.20;;;;;;4187368;28;20175;-58
2023/09/15 09:22:01;;;;;;;4.43;2.70;;;20.70;67.50;;;;;;4187447;28;20052;-58
2023/09/15 09:24:43;;;;;;;97.95;31.38;;;20.80;67.10;;;;;;4185785;28;20044;-58
2023/09/15 09:27:31;;;;;;;;;;;20.80;66.80;;;;;;4187328;28;20055;-56
2023/09/15 09:30:13;;;;;;;5.30;2.78;;;20.90;66.40;;;;;;4187394;28;19932;-57
2023/09/15 09:32:54;;;;;;;9.32;3.50;;;20.90;66.20;;;;;;4170770;28;20400;-48
2023/09/15 09:35:36;;;;;;;4.70;2.50;;;21.00;66.00;;;;;;4170923;28;20063;-58
2023/09/15 09:38:17;;;;;;;3.13;2.38;;;21.00;65.70;;;;;;4170849;28;20052;-49
2023/09/15 09:41:00;;;;;;;4.35;2.40;;;21.00;65.40;;;;;;4180402;28;20404;-54
2023/09/15 09:43:46;;;;;;;7.57;3.08;;;21.00;66.80;;;;;;4186795;28;20083;-51
2023/09/15 09:46:27;;;;;;;6.20;2.95;;;21.00;65.80;;;;;;4187182;28;20058;-50
2023/09/15 09:49:08;;;;;;;6.60;3.03;;;21.10;65.50;;;;;;4187439;28;20517;-51
2023/09/15 09:51:52;;;;;;;;;;;21.10;65.20;;;;;;4186066;28;20506;-53
2023/09/15 09:54:35;;;;;;;5.35;2.78;;;21.20;65.20;;;;;;4173218;28;19978;-54
2023/09/15 09:57:16;;;;;;;5.50;3.17;;;21.20;65.00;;;;;;4170764;28;20055;-53
2023/09/15 09:59:58;;;;;;;5.82;3.47;;;21.30;64.80;;;;;;4186479;28;20055;-53
2023/09/15 10:02:41;;;;;;;;;;;21.40;64.30;;;;;;4187672;28;20146;-51
2023/09/15 10:05:27;;;;;;;5.65;3.25;;;21.50;64.50;;;;;;4185625;28;19939;-55
2023/09/15 10:08:10;;;;;;;4.80;2.78;;;21.60;64.30;;;;;;4187456;28;20407;-51
2023/09/15 10:10:52;;;;;;;8.18;3.60;;;21.70;63.20;;;;;;4171287;28;20055;-52
2023/09/15 10:13:33;;;;;;;;;;;21.70;64.40;;;;;;4171573;28;20397;-56
2023/09/15 10:16:14;;;;;;;6.95;3.58;;;21.70;63.60;;;;;;4170519;28;19974;-56
2023/09/15 10:18:56;;;;;;;6.03;3.15;;;21.80;63.60;;;;;;4176718;28;20097;-57
2023/09/15 10:21:38;;;;;;;5.68;3.42;;;21.70;63.50;;;;;;4186487;28;20063;-57
2023/09/15 10:24:21;;;;;;;5.22;4.07;;;21.70;63.40;;;;;;4187230;28;20039;-58
2023/09/15 10:27:03;;;;;;;5.82;3.30;;;21.70;63.10;;;;;;4186999;28;20118;-57
2023/09/15 10:29:45;;;;;;;4.05;3.05;;;21.70;62.60;;;;;;4186732;28;20411;-57
2023/09/15 10:32:26;;;;;;;5.35;3.22;;;21.70;62.30;;;;;;4186853;28;20130;-56
2023/09/15 10:35:08;;;;;;;3.70;2.70;;;21.70;62.40;;;;;;4170564;28;20521;-58
2023/09/15 10:37:50;;;;;;;5.00;2.40;;;21.70;61.80;;;;;;4179534;28;20113;-57
2023/09/15 10:40:45;;;;;;;4.55;2.70;;;21.70;61.70;;;;;;4186769;28;20079;-58
2023/09/15 10:43:26;;;;;;;5.78;2.80;;;21.70;61.50;;;;;;4174446;28;20070;-57
2023/09/15 10:46:07;;;;;;;3.38;3.13;;;21.80;62.00;;;;;;4184837;28;20052;-57
2023/09/15 10:48:51;;;;;;;5.57;2.85;;;21.80;62.00;;;;;;4183784;28;20167;-57
2023/09/15 10:51:34;;;;;;;7.55;2.85;;;21.80;61.80;;;;;;4186948;28;20055;-59
2023/09/15 10:54:15;;;;;;;5.45;2.45;;;21.80;62.60;;;;;;4183181;28;20186;-59
2023/09/15 10:56:58;;;;;;;3.88;3.13;;;21.90;62.00;;;;;;4190022;28;21409;-59
2023/09/15 10:59:38;;;;;;;4.82;2.80;;;21.90;61.80;;;;;;4200383;28;20129;-59
2023/09/15 11:02:20;;;;;;;5.10;3.55;;;21.90;61.70;;;;;;4190045;28;20055;-60
2023/09/15 11:05:01;;;;;;;4.60;2.60;;;21.90;61.70;;;;;;4184618;28;20063;-60
2023/09/15 11:07:44;;;;;;;5.75;3.30;;;21.90;61.80;;;;;;4189913;28;20047;-60
2023/09/15 11:10:28;;;;;;;4.50;2.97;;;22.00;61.80;;;;;;4190067;28;20048;-58
2023/09/15 11:13:10;;;;;;;4.30;2.90;;;22.00;61.60;;;;;;4186908;28;20133;-55
2023/09/15 11:15:52;;;;;;;5.18;3.22;;;22.00;62.00;;;;;;4190259;28;20194;-53
2023/09/15 11:18:33;;;;;;;4.03;2.92;;;22.00;62.00;;;;;;4189608;28;20388;-56
2023/09/15 11:21:16;;;;;;;4.72;2.47;;;22.00;61.40;;;;;;4188416;28;20388;-56
2023/09/15 11:23:57;;;;;;;4.78;2.65;;;22.10;61.00;;;;;;4189289;28;20051;-53
2023/09/15 11:26:45;;;;;;;;;;;22.10;61.30;;;;;;4190158;28;20059;-56
2023/09/15 11:29:29;;;;;;;7.63;3.47;;;22.10;62.70;;;;;;4189427;28;19930;-56
2023/09/15 11:32:11;;;;;;;4.53;2.50;;;22.10;62.80;;;;;;4190020;28;20470;-59
2023/09/15 11:34:52;;;;;;;4.32;2.70;;;22.10;62.60;;;;;;4187779;28;20484;-56
2023/09/15 11:37:33;;;;;;;;;;;22.10;61.70;;;;;;4173090;28;20056;-57
2023/09/15 11:40:21;;;;;;;4.30;2.53;;;22.20;62.50;;;;;;4172468;28;19931;-61
2023/09/15 11:43:02;;;;;;;3.75;2.13;;;22.20;62.80;;;;;;4177578;28;20492;-58
2023/09/15 11:45:45;;;;;;;3.45;2.42;;;22.20;62.60;;;;;;4188582;28;20055;-58
2023/09/15 11:48:26;;;;;;;4.75;2.50;;;22.20;62.30;;;;;;4188285;28;20213;-57
2023/09/15 11:51:09;;;;;;;;;;;22.20;62.10;;;;;;4189306;28;20043;-58
2023/09/15 11:53:50;;;;;;;4.18;2.90;;;22.20;62.20;;;;;;4189530;28;19973;-58
2023/09/15 11:56:31;;;;;;;3.92;2.72;;;22.20;62.30;;;;;;4187741;28;20056;-58
2023/09/15 11:59:15;;;;;;;7.45;3.05;;;22.20;61.60;;;;;;4188671;28;20557;-59
2023/09/15 12:01:59;;;;;;;4.07;2.88;;;22.20;61.10;;;;;;4187284;28;20096;-54
2023/09/15 12:07:51;;;;;;;6.72;3.08;;;22.30;61.70;;;;;;4480751;24;20078;-58
2023/09/15 12:13:56;;;;;;;3.50;3.00;;;22.50;61.80;;;;;;4033291;29;20107;-57
2023/09/15 12:16:37;;;;;;;4.85;2.70;;;22.50;62.20;;;;;;4016112;29;20495;-52
2023/09/15 12:19:20;;;;;;;;;;;22.60;62.20;;;;;;4014156;29;20056;-51
2023/09/15 12:22:02;;;;;;;4.43;2.70;;;22.60;61.90;;;;;;4013781;29;19931;-52
2023/09/15 12:24:43;;;;;;;6.55;2.63;;;22.60;61.50;;;;;;4013846;29;20076;-51
2023/09/15 12:27:25;;;;;;;4.50;2.53;;;22.70;61.60;;;;;;4012779;29;20057;-52
2023/09/15 12:30:07;;;;;;;5.80;2.58;;;22.70;60.80;;;;;;4013376;29;20052;-56
2023/09/15 12:32:49;;;;;;;3.85;2.45;;;22.80;61.00;;;;;;4012908;29;20064;-56
2023/09/15 12:35:39;;;;;;;5.38;2.30;;;22.80;62.00;;;;;;3995248;29;20080;-59
2023/09/15 12:38:21;;;;;;;4.95;2.53;;;22.80;60.50;;;;;;4013198;29;20068;-62
2023/09/15 12:41:02;;;;;;;3.97;2.72;;;22.80;60.60;;;;;;4012789;29;20065;-58
2023/09/15 12:43:43;;;;;;;4.13;2.30;;;22.80;60.70;;;;;;4013472;29;20069;-61
2023/09/15 12:46:24;;;;;;;5.07;2.40;;;22.90;60.50;;;;;;4008229;29;20064;-52
2023/09/15 12:49:06;;;;;;;6.18;2.88;;;23.00;60.90;;;;;;4013181;29;20064;-50
2023/09/15 12:51:48;;;;;;;4.68;2.45;;;23.00;60.70;;;;;;4013604;29;20602;-50
2023/09/15 12:54:29;;;;;;;4.70;2.60;;;23.00;60.70;;;;;;4013546;29;20097;-54
2023/09/15 12:57:10;;;;;;;5.57;2.58;;;23.00;60.70;;;;;;4013167;29;20068;-53
2023/09/15 12:59:52;;;;;;;3.67;2.88;;;23.10;60.60;;;;;;4012459;29;20140;-54
2023/09/15 13:02:34;;;;;;;4.20;2.42;;;23.10;60.60;;;;;;4012537;29;20080;-53
2023/09/15 13:05:15;;;;;;;4.45;3.17;;;23.10;61.50;;;;;;4011856;29;20105;-54
2023/09/15 13:07:57;;;;;;;;;;;23.10;60.20;;;;;;4012591;29;20184;-54
2023/09/15 13:10:38;;;;;;;5.63;2.83;;;23.10;60.30;;;;;;4012293;29;19931;-54
2023/09/15 13:13:19;;;;;;;7.38;2.78;;;23.00;60.40;;;;;;4010089;29;20064;-55
2023/09/15 13:16:01;;;;;;;;;;;23.00;60.30;;;;;;4012213;29;20061;-69
2023/09/15 13:18:41;;;;;;;4.63;3.00;;;23.00;60.40;;;;;;3999778;29;20442;-55
2023/09/15 13:21:23;;;;;;;2.95;2.35;;;23.00;60.50;;;;;;4011678;29;20625;-55
2023/09/15 13:24:06;;;;;;;5.30;2.72;;;23.00;60.30;;;;;;4010668;29;20068;-55
2023/09/15 13:26:47;;;;;;;5.57;2.88;;;23.00;60.10;;;;;;4012774;29;20123;-53
2023/09/15 13:29:28;;;;;;;4.95;2.70;;;23.00;59.90;;;;;;4012748;29;20186;-55
2023/09/15 13:32:09;;;;;;;3.90;2.65;;;23.00;60.80;;;;;;4012853;29;20167;-55
2023/09/15 13:34:50;;;;;;;;;;;23.00;60.00;;;;;;4011825;29;20064;-55
2023/09/15 13:37:31;;;;;;;4.18;3.28;;;23.00;60.80;;;;;;4012603;29;20049;-54
2023/09/15 13:40:13;;;;;;;3.28;2.70;;;23.00;60.50;;;;;;4001371;29;20136;-54
2023/09/15 13:42:55;;;;;;;5.10;2.72;;;23.00;60.30;;;;;;4011690;29;20120;-57
2023/09/15 13:45:35;;;;;;;5.90;3.33;;;23.10;60.60;;;;;;4012131;29;20413;-52
2023/09/15 13:48:17;;;;;;;5.75;3.13;;;23.10;60.90;;;;;;4011631;29;20056;-57
2023/09/15 13:50:58;;;;;;;;;;;23.10;61.30;;;;;;4011858;29;20120;-57
2023/09/15 13:53:39;;;;;;;7.05;2.90;;;23.10;61.30;;;;;;4011777;29;20496;-57
2023/09/15 13:56:21;;;;;;;;;;;23.10;61.30;;;;;;4011837;29;20092;-57
2023/09/15 13:59:03;;;;;;;6.88;3.45;;;23.00;61.30;;;;;;4011614;29;20072;-56
2023/09/15 14:01:44;;;;;;;4.72;3.03;;;23.00;61.50;;;;;;4010991;29;20090;-57
2023/09/15 14:04:25;;;;;;;4.10;2.83;;;23.00;61.50;;;;;;4011350;29;20190;-57
2023/09/15 14:07:16;;;;;;;3.90;2.90;;;23.00;61.60;;;;;;4011369;29;20052;-57
2023/09/15 14:09:57;;;;;;;3.20;2.90;;;23.00;61.80;;;;;;4002595;29;20129;-57
2023/09/15 14:12:40;;;;;;;6.13;3.95;;;23.00;62.00;;;;;;3999799;29;20508;-56
2023/09/15 14:15:21;;;;;;;4.50;3.50;;;23.00;62.10;;;;;;4011134;29;20412;-57
2023/09/15 14:18:02;;;;;;;3.70;3.30;;;22.90;62.10;;;;;;3998892;29;20065;-57